createdAt,value
2022-12-26T00:00:53.117Z,359.95
2022-12-26T00:06:00.291Z,358.76
2022-12-26T00:11:07.453Z,359.75
2022-12-26T00:16:14.744Z,360.06
2022-12-26T00:21:21.898Z,358.84
2022-12-26T00:26:29.066Z,357.51
2022-12-26T00:31:36.387Z,356.51
2022-12-26T00:36:43.680Z,355.77
2022-12-26T00:41:50.999Z,357.06
2022-12-26T00:46:58.294Z,356.29
2022-12-26T00:52:05.444Z,356.52
2022-12-26T00:57:12.637Z,357.25
2022-12-26T01:02:19.921Z,356.81
2022-12-26T01:07:27.031Z,356.61
2022-12-26T01:12:34.282Z,355.24
2022-12-26T01:17:41.537Z,354.42
2022-12-26T01:22:48.754Z,353.07
2022-12-26T01:27:55.950Z,352.61
2022-12-26T01:33:03.244Z,351.87
2022-12-26T01:38:10.445Z,352.15
2022-12-26T01:43:17.579Z,352.36
2022-12-26T01:48:24.812Z,351.61
2022-12-26T01:53:32.098Z,351.59
2022-12-26T01:58:39.304Z,351.27
2022-12-26T02:03:46.477Z,351.34
2022-12-26T02:08:53.705Z,351.54
2022-12-26T02:14:00.891Z,352.10
2022-12-26T02:19:08.095Z,352.82
2022-12-26T02:24:15.449Z,353.87
2022-12-26T02:29:22.683Z,353.13
2022-12-26T02:34:29.929Z,352.51
2022-12-26T02:39:45.138Z,352.76
2022-12-26T02:44:44.329Z,351.91
2022-12-26T02:49:51.552Z,350.80
2022-12-26T02:54:58.761Z,350.17
2022-12-26T03:00:05.973Z,352.73
2022-12-26T03:05:13.201Z,352.49
2022-12-26T03:10:20.501Z,352.89
2022-12-26T03:15:27.680Z,353.87
2022-12-26T03:20:34.944Z,353.05
2022-12-26T03:25:42.276Z,352.50
2022-12-26T03:30:49.611Z,352.37
2022-12-26T03:35:56.758Z,352.47
2022-12-26T03:41:03.953Z,353.54
2022-12-26T03:46:11.225Z,353.41
2022-12-26T03:51:18.389Z,353.18
2022-12-26T03:56:25.611Z,352.92
2022-12-26T04:01:32.867Z,351.85
2022-12-26T04:06:40.007Z,352.67
2022-12-26T04:11:47.243Z,351.28
2022-12-26T04:16:54.469Z,351.08
2022-12-26T04:22:01.623Z,351.77
2022-12-26T04:27:08.852Z,350.84
2022-12-26T04:32:16.030Z,351.40
2022-12-26T04:37:23.215Z,351.89
2022-12-26T04:42:30.500Z,350.96
2022-12-26T04:47:37.776Z,349.43
2022-12-26T04:52:44.996Z,348.85
2022-12-26T04:57:52.265Z,347.60
2022-12-26T05:02:59.721Z,347.56
2022-12-26T05:08:06.682Z,347.86
2022-12-26T05:13:13.843Z,347.19
2022-12-26T05:18:20.959Z,347.02
2022-12-26T05:23:28.220Z,347.64
2022-12-26T05:28:35.407Z,346.96
2022-12-26T05:33:42.674Z,346.90
2022-12-26T05:38:49.840Z,348.29
2022-12-26T05:43:57.034Z,346.66
2022-12-26T05:49:04.303Z,345.72
2022-12-26T05:54:11.522Z,347.38
2022-12-26T05:59:18.747Z,346.90
2022-12-26T06:04:25.968Z,347.81
2022-12-26T06:09:33.133Z,348.08
2022-12-26T06:14:40.366Z,349.18
2022-12-26T06:19:47.554Z,349.97
2022-12-26T06:24:54.787Z,350.77
2022-12-26T06:30:02.070Z,351.48
2022-12-26T06:35:09.259Z,349.99
2022-12-26T06:40:16.452Z,350.01
2022-12-26T06:45:23.810Z,350.73
2022-12-26T06:50:30.976Z,351.81
2022-12-26T06:55:38.171Z,352.21
2022-12-26T07:00:45.497Z,350.54
2022-12-26T07:05:52.586Z,351.14
2022-12-26T07:10:59.776Z,352.95
2022-12-26T07:16:07.031Z,353.20
2022-12-26T07:21:14.162Z,352.81
2022-12-26T07:26:21.394Z,353.97
2022-12-26T07:31:28.660Z,354.21
2022-12-26T07:36:35.872Z,354.16
2022-12-26T07:41:43.135Z,354.01
2022-12-26T07:46:50.341Z,353.30
2022-12-26T07:51:57.532Z,354.52
2022-12-26T07:57:38.022Z,353.11
2022-12-26T08:02:12.248Z,353.07
2022-12-26T08:07:19.199Z,351.85
2022-12-26T08:12:26.349Z,354.85
2022-12-26T08:17:33.570Z,354.74
2022-12-26T08:22:40.744Z,355.50
2022-12-26T08:27:47.964Z,355.32
2022-12-26T08:32:55.225Z,354.18
2022-12-26T08:38:02.380Z,353.03
2022-12-26T08:43:30.263Z,352.78
2022-12-26T08:48:16.735Z,353.09
2022-12-26T08:53:23.877Z,352.62
2022-12-26T08:58:31.155Z,351.72
2022-12-26T09:03:38.330Z,351.94
2022-12-26T09:08:45.513Z,350.97
2022-12-26T09:13:52.725Z,351.65
2022-12-26T09:18:59.922Z,349.92
2022-12-26T09:24:07.090Z,351.87
2022-12-26T09:29:14.269Z,350.46
2022-12-26T09:34:21.482Z,351.59
2022-12-26T09:39:28.711Z,351.09
2022-12-26T09:44:35.870Z,351.50
2022-12-26T09:49:43.130Z,349.97
2022-12-26T09:54:50.351Z,352.14
2022-12-26T09:59:57.555Z,350.29
2022-12-26T10:05:04.816Z,350.90
2022-12-26T10:10:12.050Z,351.34
2022-12-26T10:15:19.257Z,350.98
2022-12-26T10:20:26.490Z,350.93
2022-12-26T10:25:34.122Z,352.21
2022-12-26T10:30:40.905Z,354.13
2022-12-26T10:35:48.068Z,352.92
2022-12-26T10:40:55.304Z,353.16
2022-12-26T10:46:02.533Z,353.53
2022-12-26T10:51:09.704Z,352.46
2022-12-26T10:56:18.482Z,353.13
2022-12-26T11:01:24.208Z,354.23
2022-12-26T11:06:31.360Z,352.58
2022-12-26T11:11:38.503Z,352.43
2022-12-26T11:16:45.750Z,352.23
2022-12-26T11:21:53.044Z,349.25
2022-12-26T11:27:00.209Z,348.08
2022-12-26T11:32:07.450Z,345.44
2022-12-26T11:37:14.710Z,345.39
2022-12-26T11:42:21.948Z,345.36
2022-12-26T11:47:29.154Z,342.60
2022-12-26T11:52:36.382Z,340.98
2022-12-26T11:57:43.539Z,341.96
2022-12-26T12:02:50.788Z,341.34
2022-12-26T12:07:58.016Z,342.01
2022-12-26T12:13:05.139Z,342.69
2022-12-26T12:18:12.381Z,345.28
2022-12-26T12:23:19.627Z,345.56
2022-12-26T12:28:26.887Z,345.32
2022-12-26T12:33:34.087Z,344.91
2022-12-26T12:38:41.334Z,343.85
2022-12-26T12:43:48.489Z,344.33
2022-12-26T12:48:55.690Z,344.36
2022-12-26T12:54:02.941Z,343.99
2022-12-26T12:59:10.066Z,342.55
2022-12-26T13:04:17.267Z,343.32
2022-12-26T13:09:24.556Z,342.65
2022-12-26T13:14:31.720Z,343.32
2022-12-26T13:19:38.928Z,343.11
2022-12-26T13:24:46.180Z,342.93
2022-12-26T13:29:53.421Z,342.18
2022-12-26T13:35:00.637Z,342.54
2022-12-26T13:40:07.923Z,341.63
2022-12-26T13:45:15.084Z,341.15
2022-12-26T13:50:22.254Z,339.24
2022-12-26T13:55:29.585Z,337.92
2022-12-26T14:00:36.784Z,337.90
2022-12-26T14:05:43.949Z,338.28
2022-12-26T14:10:51.215Z,338.86
2022-12-26T14:15:58.403Z,340.45
2022-12-26T14:21:05.620Z,339.41
2022-12-26T14:26:12.808Z,338.19
2022-12-26T14:31:19.956Z,339.16
2022-12-26T14:36:27.210Z,338.49
2022-12-26T14:41:34.432Z,337.66
2022-12-26T14:46:41.633Z,336.01
2022-12-26T14:51:48.819Z,335.67
2022-12-26T14:56:56.059Z,337.68
2022-12-26T15:02:03.458Z,337.25
2022-12-26T15:07:14.028Z,338.06
2022-12-26T15:12:17.656Z,338.83
2022-12-26T15:17:24.909Z,337.19
2022-12-26T15:22:32.152Z,338.37
2022-12-26T15:27:39.465Z,339.14
2022-12-26T15:32:46.714Z,339.44
2022-12-26T15:37:53.913Z,339.89
2022-12-26T15:43:01.155Z,339.17
2022-12-26T15:48:08.323Z,339.43
2022-12-26T15:53:15.556Z,338.43
2022-12-26T15:58:22.768Z,336.64
2022-12-26T16:03:30.072Z,336.36
2022-12-26T16:08:37.191Z,335.12
2022-12-26T16:13:44.479Z,333.97
2022-12-26T16:18:51.621Z,333.37
2022-12-26T16:23:58.911Z,329.30
2022-12-26T16:29:06.169Z,330.27
2022-12-26T16:34:13.341Z,328.12
2022-12-26T16:39:20.541Z,327.42
2022-12-26T16:44:30.396Z,327.11
2022-12-26T16:49:34.927Z,326.60
2022-12-26T16:54:42.144Z,327.40
2022-12-26T16:59:49.388Z,326.51
2022-12-26T17:04:58.552Z,326.86
2022-12-26T17:10:07.001Z,327.00
2022-12-26T17:15:11.110Z,327.55
2022-12-26T17:20:18.343Z,330.76
2022-12-26T17:25:25.551Z,333.03
2022-12-26T17:30:32.895Z,334.26
2022-12-26T17:36:25.359Z,335.16
2022-12-26T17:40:47.497Z,335.07
2022-12-26T17:45:54.731Z,330.85
2022-12-26T17:51:01.917Z,328.81
2022-12-26T17:56:09.145Z,326.87
2022-12-26T18:01:21.031Z,327.29
2022-12-26T18:06:23.823Z,327.47
2022-12-26T18:11:31.039Z,328.03
2022-12-26T18:16:38.617Z,329.34
2022-12-26T18:21:45.899Z,329.47
2022-12-26T18:26:53.111Z,327.49
2022-12-26T18:32:00.400Z,325.75
2022-12-26T18:37:07.493Z,326.36
2022-12-26T18:42:15.999Z,327.79
2022-12-26T18:47:23.421Z,328.72
2022-12-26T18:52:30.644Z,329.12
2022-12-26T18:57:37.851Z,326.78
2022-12-26T19:02:45.211Z,327.70
2022-12-26T19:07:52.324Z,329.69
2022-12-26T19:13:05.032Z,330.65
2022-12-26T19:18:07.289Z,326.97
2022-12-26T19:23:14.544Z,333.20
2022-12-26T19:28:21.754Z,328.50
2022-12-26T19:33:29.313Z,326.00
2022-12-26T19:38:36.886Z,326.58
2022-12-26T19:43:44.502Z,326.05
2022-12-26T19:48:51.865Z,326.65
2022-12-26T19:53:59.320Z,325.59
2022-12-26T19:59:06.668Z,324.24
2022-12-26T20:04:13.850Z,322.55
2022-12-26T20:09:21.348Z,326.62
2022-12-26T20:14:28.744Z,325.88
2022-12-26T20:19:36.091Z,326.39
2022-12-26T20:24:43.471Z,326.03
2022-12-26T20:29:50.936Z,326.66
2022-12-26T20:34:58.239Z,328.41
2022-12-26T20:40:05.708Z,325.09
2022-12-26T20:45:13.423Z,324.43
2022-12-26T20:50:21.065Z,324.64
2022-12-26T20:55:28.644Z,323.42
2022-12-26T21:00:35.980Z,323.54
2022-12-26T21:05:43.492Z,321.39
2022-12-26T21:10:51.021Z,319.80
2022-12-26T21:15:58.232Z,319.75
2022-12-26T21:21:05.489Z,318.11
2022-12-26T21:26:12.686Z,318.96
2022-12-26T21:31:20.012Z,317.64
2022-12-26T21:36:27.145Z,320.63
2022-12-26T21:41:34.274Z,321.21
2022-12-26T21:46:41.572Z,321.02
2022-12-26T21:51:48.754Z,317.21
2022-12-26T21:56:55.978Z,318.03
2022-12-26T22:02:03.385Z,314.06
2022-12-26T22:07:10.457Z,313.10
2022-12-26T22:12:17.648Z,311.68
2022-12-26T22:17:24.872Z,310.30
2022-12-26T22:22:32.115Z,308.53
2022-12-26T22:27:39.245Z,307.22
2022-12-26T22:32:46.439Z,306.73
2022-12-26T22:37:53.670Z,306.01
2022-12-26T22:43:00.873Z,304.89
2022-12-26T22:48:10.653Z,305.10
2022-12-26T22:53:18.398Z,306.42
2022-12-26T22:58:25.590Z,305.24
2022-12-26T23:03:32.902Z,305.32
2022-12-26T23:08:40.101Z,304.55
2022-12-26T23:13:47.269Z,304.44
2022-12-26T23:18:54.440Z,303.41
2022-12-26T23:24:01.607Z,303.36
2022-12-26T23:29:08.816Z,303.45
2022-12-26T23:34:16.017Z,303.26
2022-12-26T23:39:23.223Z,303.61
2022-12-26T23:44:30.391Z,303.08
2022-12-26T23:49:37.625Z,301.64
2022-12-26T23:54:44.952Z,300.98
2022-12-26T23:59:52.174Z,301.26
